createdAt,value
2022-08-12T00:00:08.526Z,39.68
2022-08-12T00:02:55.061Z,39.79
2022-08-12T00:06:03.946Z,40.54
2022-08-12T00:13:13.090Z,40.30
2022-08-12T00:16:02.147Z,40.71
2022-08-12T00:18:48.345Z,40.63
2022-08-12T00:22:24.380Z,40.63
2022-08-12T00:25:21.713Z,40.76
2022-08-12T00:28:27.616Z,40.95
2022-08-12T00:31:13.084Z,40.90
2022-08-12T00:33:58.784Z,40.88
2022-08-12T00:36:48.845Z,40.57
2022-08-12T00:39:36.374Z,40.55
2022-08-12T00:42:13.560Z,40.87
2022-08-12T00:44:45.545Z,40.86
2022-08-12T00:47:24.421Z,40.96
2022-08-12T00:49:55.569Z,40.22
2022-08-12T00:52:23.308Z,40.82
2022-08-12T00:54:54.128Z,41.16
2022-08-12T00:57:24.211Z,41.22
2022-08-12T00:59:53.166Z,41.20
2022-08-12T01:02:33.387Z,41.03
2022-08-12T01:05:40.481Z,40.87
2022-08-12T01:08:26.239Z,40.99
2022-08-12T01:11:14.034Z,41.14
2022-08-12T01:13:47.273Z,41.52
2022-08-12T01:16:17.373Z,41.31
2022-08-12T01:18:44.823Z,40.97
2022-08-12T01:21:33.511Z,40.96
2022-08-12T01:24:34.218Z,41.21
2022-08-12T01:27:07.848Z,41.79
2022-08-12T01:29:41.793Z,41.15
2022-08-12T01:32:12.534Z,41.47
2022-08-12T01:34:45.300Z,41.68
2022-08-12T01:37:13.541Z,41.91
2022-08-12T01:40:34.587Z,41.77
2022-08-12T01:42:43.381Z,41.58
2022-08-12T01:45:12.467Z,41.83
2022-08-12T01:48:16.989Z,41.81
2022-08-12T01:52:14.680Z,41.74
2022-08-12T01:54:19.157Z,41.59
2022-08-12T01:57:07.030Z,41.74
2022-08-12T01:59:59.416Z,41.81
2022-08-12T02:02:27.344Z,41.83
2022-08-12T02:05:26.397Z,41.88
2022-08-12T02:08:29.005Z,41.68
2022-08-12T02:11:16.400Z,41.26
2022-08-12T02:14:06.568Z,41.12
2022-08-12T02:16:42.080Z,41.31
2022-08-12T02:19:37.217Z,41.29
2022-08-12T02:22:36.720Z,41.63
2022-08-12T02:25:17.037Z,41.67
2022-08-12T02:27:47.257Z,41.59
2022-08-12T02:30:20.465Z,41.69
2022-08-12T02:32:49.570Z,41.78
2022-08-12T02:35:19.703Z,40.97
2022-08-12T02:37:48.796Z,41.23
2022-08-12T02:40:18.050Z,40.84
2022-08-12T02:43:12.253Z,41.43
2022-08-12T02:45:56.786Z,40.54
2022-08-12T02:48:30.215Z,40.28
2022-08-12T02:51:06.797Z,40.84
2022-08-12T02:53:36.165Z,40.93
2022-08-12T02:56:05.229Z,40.82
2022-08-12T02:58:34.000Z,40.70
2022-08-12T03:01:10.280Z,41.03
2022-08-12T03:03:39.459Z,39.81
2022-08-12T03:06:27.319Z,40.30
2022-08-12T03:08:57.459Z,40.10
2022-08-12T03:11:49.021Z,40.15
2022-08-12T03:14:18.117Z,40.19
2022-08-12T03:16:50.347Z,40.14
2022-08-12T03:19:24.808Z,40.23
2022-08-12T03:22:09.309Z,40.45
2022-08-12T03:24:42.080Z,39.98
2022-08-12T03:27:11.284Z,40.05
2022-08-12T03:29:47.469Z,40.41
2022-08-12T03:32:35.485Z,40.61
2022-08-12T03:35:07.830Z,40.98
2022-08-12T03:37:37.307Z,40.96
2022-08-12T03:40:05.042Z,41.38
2022-08-12T03:42:51.850Z,41.53
2022-08-12T03:45:51.535Z,41.01
2022-08-12T03:48:38.792Z,41.11
2022-08-12T03:51:26.444Z,41.38
2022-08-12T03:54:12.971Z,41.46
2022-08-12T03:56:58.893Z,42.61
2022-08-12T03:59:44.789Z,42.84
2022-08-12T04:02:16.253Z,42.63
2022-08-12T04:04:45.618Z,43.24
2022-08-12T04:07:16.509Z,43.58
2022-08-12T04:09:45.528Z,44.64
2022-08-12T04:12:32.718Z,44.08
2022-08-12T04:15:01.393Z,44.36
2022-08-12T04:17:28.594Z,44.98
2022-08-12T04:19:59.386Z,45.01
2022-08-12T04:22:30.499Z,45.26
2022-08-12T04:25:02.157Z,45.86
2022-08-12T04:27:31.692Z,46.89
2022-08-12T04:30:30.213Z,47.19
2022-08-12T04:32:50.172Z,47.12
2022-08-12T04:35:17.907Z,47.34
2022-08-12T04:37:59.131Z,47.98
2022-08-12T04:40:30.793Z,48.61
2022-08-12T04:43:01.024Z,48.53
2022-08-12T04:45:29.059Z,48.88
2022-08-12T04:47:56.712Z,48.65
2022-08-12T04:50:26.863Z,48.83
2022-08-12T04:53:02.938Z,48.05
2022-08-12T04:55:30.025Z,48.53
2022-08-12T04:57:56.896Z,49.43
2022-08-12T05:00:23.911Z,49.67
2022-08-12T05:02:51.125Z,49.68
2022-08-12T05:05:23.034Z,48.64
2022-08-12T05:07:54.218Z,48.22
2022-08-12T05:10:33.915Z,48.85
2022-08-12T05:13:08.384Z,48.60
2022-08-12T05:16:04.803Z,48.82
2022-08-12T05:18:39.164Z,48.31
2022-08-12T05:21:08.072Z,48.70
2022-08-12T05:23:37.359Z,48.88
2022-08-12T05:26:04.969Z,48.23
2022-08-12T05:28:32.170Z,48.55
2022-08-12T05:31:03.432Z,48.40
2022-08-12T05:33:37.639Z,48.57
2022-08-12T05:36:12.719Z,49.04
2022-08-12T05:38:58.531Z,49.09
2022-08-12T05:41:36.109Z,48.31
2022-08-12T05:44:06.497Z,48.26
2022-08-12T05:46:36.721Z,47.46
2022-08-12T05:49:04.775Z,47.46
2022-08-12T05:51:40.925Z,47.45
2022-08-12T05:54:10.490Z,47.56
2022-08-12T05:56:37.494Z,47.53
2022-08-12T05:59:11.158Z,47.39
2022-08-12T06:02:09.752Z,48.12
2022-08-12T06:04:26.182Z,48.54
2022-08-12T06:06:53.627Z,48.06
2022-08-12T06:09:22.555Z,47.72
2022-08-12T06:12:05.841Z,47.64
2022-08-12T06:14:36.942Z,48.30
2022-08-12T06:17:05.461Z,48.82
2022-08-12T06:20:27.810Z,48.75
2022-08-12T06:22:19.636Z,48.12
2022-08-12T06:24:48.399Z,47.84
2022-08-12T06:27:17.757Z,48.39
2022-08-12T06:30:09.343Z,47.96
2022-08-12T06:32:31.631Z,47.76
2022-08-12T06:35:23.839Z,49.07
2022-08-12T06:37:57.094Z,48.39
2022-08-12T06:41:04.094Z,47.87
2022-08-12T06:44:06.140Z,47.05
2022-08-12T06:46:19.475Z,46.77
2022-08-12T06:48:46.315Z,46.74
2022-08-12T06:51:13.411Z,46.23
2022-08-12T06:53:46.964Z,47.15
2022-08-12T06:56:17.475Z,46.65
2022-08-12T06:58:44.549Z,46.80
2022-08-12T07:01:11.705Z,47.42
2022-08-12T07:03:38.577Z,46.81
2022-08-12T07:06:11.678Z,46.59
2022-08-12T07:08:39.858Z,45.72
2022-08-12T07:11:09.357Z,45.37
2022-08-12T07:14:02.386Z,44.79
2022-08-12T07:16:50.554Z,45.68
2022-08-12T07:19:17.994Z,45.39
2022-08-12T07:21:59.899Z,45.25
2022-08-12T07:24:30.269Z,43.94
2022-08-12T07:26:57.092Z,43.92
2022-08-12T07:29:26.108Z,44.25
2022-08-12T07:32:12.985Z,45.28
2022-08-12T07:34:43.368Z,44.99
2022-08-12T07:37:10.328Z,44.63
2022-08-12T07:39:37.141Z,43.49
2022-08-12T07:42:17.476Z,43.54
2022-08-12T07:44:44.453Z,44.69
2022-08-12T07:47:12.624Z,43.32
2022-08-12T07:50:03.332Z,43.73
2022-08-12T07:52:26.609Z,45.52
2022-08-12T07:54:53.947Z,43.04
2022-08-12T07:57:21.403Z,42.77
2022-08-12T07:59:48.282Z,43.00
2022-08-12T08:02:22.351Z,42.12
2022-08-12T08:04:57.477Z,42.36
2022-08-12T08:07:30.934Z,41.41
2022-08-12T08:10:00.322Z,41.70
2022-08-12T08:12:47.497Z,40.32
2022-08-12T08:15:15.797Z,39.61
2022-08-12T08:17:59.707Z,39.16
2022-08-12T08:20:30.736Z,39.42
2022-08-12T08:22:59.002Z,38.09
2022-08-12T08:25:36.457Z,37.66
2022-08-12T08:28:08.298Z,37.41
2022-08-12T08:30:38.379Z,37.61
2022-08-12T08:33:23.515Z,37.45
2022-08-12T08:35:56.171Z,37.01
2022-08-12T08:38:32.157Z,37.77
2022-08-12T08:42:17.008Z,35.51
2022-08-12T08:44:08.021Z,35.03
2022-08-12T08:46:38.057Z,35.07
2022-08-12T08:49:06.205Z,36.55
2022-08-12T08:51:33.770Z,35.56
2022-08-12T08:54:00.580Z,35.47
2022-08-12T08:56:29.581Z,34.68
2022-08-12T08:58:57.759Z,33.11
2022-08-12T09:01:25.362Z,33.49
2022-08-12T09:05:08.343Z,33.82
2022-08-12T09:06:53.787Z,32.20
2022-08-12T09:09:21.418Z,32.72
2022-08-12T09:12:11.934Z,33.53
2022-08-12T09:14:46.967Z,33.84
2022-08-12T09:17:22.271Z,32.36
2022-08-12T09:19:56.901Z,32.08
2022-08-12T09:22:28.530Z,32.86
2022-08-12T09:24:59.836Z,32.61
2022-08-12T09:30:16.062Z,32.40
2022-08-12T09:33:04.714Z,31.50
2022-08-12T09:35:42.842Z,30.44
2022-08-12T09:38:28.582Z,31.91
2022-08-12T09:42:07.186Z,31.92
2022-08-12T09:44:04.981Z,30.17
2022-08-12T09:46:34.479Z,30.55
2022-08-12T09:49:04.076Z,30.68
2022-08-12T09:51:43.349Z,30.31
2022-08-12T09:54:32.812Z,30.54
2022-08-12T09:58:50.355Z,29.83
2022-08-12T10:00:12.845Z,29.85
2022-08-12T10:03:31.249Z,30.98
2022-08-12T10:06:28.052Z,30.34
2022-08-12T10:08:52.257Z,29.91
2022-08-12T10:12:10.416Z,31.17
2022-08-12T10:14:34.428Z,31.04
2022-08-12T10:17:02.257Z,29.85
2022-08-12T10:19:36.699Z,30.86
2022-08-12T10:22:06.181Z,30.65
2022-08-12T10:25:17.185Z,30.63
2022-08-12T10:28:08.368Z,29.41
2022-08-12T10:30:46.836Z,29.86
2022-08-12T10:33:31.741Z,28.93
2022-08-12T10:36:00.406Z,29.72
2022-08-12T10:38:34.770Z,28.80
2022-08-12T10:41:57.442Z,28.75
2022-08-12T10:44:17.257Z,29.70
2022-08-12T10:46:49.204Z,29.36
2022-08-12T10:50:07.083Z,29.24
2022-08-12T10:52:34.836Z,29.29
2022-08-12T10:54:59.938Z,29.51
2022-08-12T10:58:13.350Z,29.53
2022-08-12T11:00:33.993Z,29.19
2022-08-12T11:04:25.808Z,30.13
2022-08-12T11:07:08.560Z,29.18
2022-08-12T11:08:43.203Z,29.87
2022-08-12T11:11:17.921Z,30.33
2022-08-12T11:14:05.830Z,29.72
2022-08-12T11:16:33.910Z,29.39
2022-08-12T11:19:05.386Z,29.74
2022-08-12T11:21:56.437Z,29.99
2022-08-12T11:24:32.048Z,30.08
2022-08-12T11:27:02.189Z,29.93
2022-08-12T11:30:01.708Z,30.01
2022-08-12T11:32:23.414Z,30.32
2022-08-12T11:34:54.785Z,30.74
2022-08-12T11:37:25.626Z,30.48
2022-08-12T11:40:10.355Z,30.46
2022-08-12T11:42:46.200Z,30.46
2022-08-12T11:45:16.907Z,30.60
2022-08-12T11:47:44.397Z,31.23
2022-08-12T11:50:19.678Z,31.07
2022-08-12T11:52:56.740Z,30.11
2022-08-12T11:55:29.355Z,30.29
2022-08-12T11:58:09.500Z,30.16
2022-08-12T12:03:45.776Z,31.43
2022-08-12T12:06:17.866Z,33.62
2022-08-12T12:08:51.099Z,35.90
2022-08-12T12:11:19.677Z,36.68
2022-08-12T12:14:08.891Z,37.18
2022-08-12T12:16:38.075Z,36.85
2022-08-12T12:19:10.138Z,36.62
2022-08-12T12:21:46.913Z,37.68
2022-08-12T12:24:22.065Z,37.07
2022-08-12T12:27:00.441Z,36.78
2022-08-12T12:30:17.649Z,36.33
2022-08-12T12:32:17.099Z,35.00
2022-08-12T12:35:14.003Z,32.72
2022-08-12T12:38:05.116Z,34.04
2022-08-12T12:40:20.217Z,32.19
2022-08-12T12:42:56.021Z,31.63
2022-08-12T12:45:28.058Z,33.06
2022-08-12T12:48:19.144Z,31.35
2022-08-12T12:51:12.175Z,31.03
2022-08-12T12:54:08.368Z,31.69
2022-08-12T12:56:34.003Z,32.13
2022-08-12T12:59:03.759Z,32.70
2022-08-12T13:01:38.194Z,31.96
2022-08-12T13:04:08.238Z,31.87
2022-08-12T13:06:41.272Z,30.31
2022-08-12T13:09:12.877Z,30.05
2022-08-12T13:11:42.073Z,29.53
2022-08-12T13:14:28.970Z,29.88
2022-08-12T13:17:03.667Z,29.38
2022-08-12T13:19:45.188Z,30.15
2022-08-12T13:22:21.253Z,29.50
2022-08-12T13:24:56.029Z,29.18
2022-08-12T13:27:34.647Z,28.20
2022-08-12T13:30:11.063Z,29.23
2022-08-12T13:32:46.891Z,28.69
2022-08-12T13:36:03.345Z,29.04
2022-08-12T13:38:26.724Z,29.28
2022-08-12T13:41:03.770Z,28.95
2022-08-12T13:43:40.854Z,29.22
2022-08-12T13:46:11.911Z,29.96
2022-08-12T13:48:45.347Z,29.24
2022-08-12T13:51:14.138Z,29.62
2022-08-12T13:53:57.851Z,29.21
2022-08-12T13:56:34.518Z,28.59
2022-08-12T13:59:07.808Z,28.64
2022-08-12T14:01:40.135Z,27.76
2022-08-12T14:04:11.903Z,27.88
2022-08-12T14:06:40.675Z,28.97
2022-08-12T14:09:15.648Z,29.31
2022-08-12T14:11:58.478Z,29.24
2022-08-12T14:14:27.124Z,29.00
2022-08-12T14:16:54.058Z,29.45
2022-08-12T14:19:24.414Z,28.60
2022-08-12T14:22:01.124Z,29.45
2022-08-12T14:24:35.381Z,29.61
2022-08-12T14:27:03.806Z,29.29
2022-08-12T14:29:55.796Z,29.12
2022-08-12T14:32:25.227Z,28.71
2022-08-12T14:34:53.123Z,29.62
2022-08-12T14:37:57.863Z,28.87
2022-08-12T14:40:18.374Z,27.96
2022-08-12T14:42:47.026Z,27.95
2022-08-12T14:45:14.368Z,27.77
2022-08-12T14:47:50.036Z,27.57
2022-08-12T14:50:58.743Z,27.34
2022-08-12T14:59:20.397Z,26.46
2022-08-12T15:01:52.133Z,26.79
2022-08-12T15:04:28.531Z,26.71
2022-08-12T15:06:56.344Z,27.17
2022-08-12T15:09:28.642Z,27.01
2022-08-12T15:12:03.729Z,27.15
2022-08-12T15:14:31.967Z,27.32
2022-08-12T15:17:01.752Z,27.39
2022-08-12T15:20:31.634Z,26.98
2022-08-12T15:22:39.316Z,27.20
2022-08-12T15:25:07.464Z,27.56
2022-08-12T15:28:04.373Z,27.01
2022-08-12T15:30:31.421Z,25.87
2022-08-12T15:32:59.053Z,25.58
2022-08-12T15:35:38.350Z,25.60
2022-08-12T15:38:20.241Z,25.05
2022-08-12T15:40:51.285Z,25.47
2022-08-12T15:43:51.043Z,25.57
2022-08-12T15:46:06.943Z,25.70
2022-08-12T15:48:35.200Z,26.15
2022-08-12T15:51:03.168Z,25.87
2022-08-12T15:53:53.250Z,26.02
2022-08-12T15:56:29.673Z,26.08
2022-08-12T15:58:59.026Z,26.75
2022-08-12T16:01:35.359Z,26.61
2022-08-12T16:04:05.151Z,27.30
2022-08-12T16:09:56.449Z,27.29
2022-08-12T16:12:12.175Z,27.33
2022-08-12T16:14:39.343Z,28.06
2022-08-12T16:17:08.950Z,27.93
2022-08-12T16:20:05.331Z,28.10
2022-08-12T16:22:24.484Z,28.90
2022-08-12T16:24:54.146Z,29.00
2022-08-12T16:27:23.510Z,28.85
2022-08-12T16:29:57.705Z,28.34
2022-08-12T16:32:31.514Z,28.64
2022-08-12T16:35:00.767Z,28.19
2022-08-12T16:37:32.389Z,28.25
2022-08-12T16:40:18.819Z,28.57
2022-08-12T16:42:54.118Z,28.50
2022-08-12T16:46:23.285Z,28.19
2022-08-12T16:48:33.944Z,28.38
2022-08-12T16:51:09.777Z,28.51
2022-08-12T16:53:43.905Z,28.21
2022-08-12T16:56:17.447Z,27.67
2022-08-12T16:58:44.599Z,28.52
2022-08-12T17:01:16.617Z,29.17
2022-08-12T17:03:59.738Z,30.00
2022-08-12T17:06:28.074Z,30.15
2022-08-12T17:09:03.073Z,30.78
2022-08-12T17:11:33.439Z,31.14
2022-08-12T17:14:01.712Z,31.88
2022-08-12T17:16:29.939Z,32.06
2022-08-12T17:18:59.543Z,31.52
2022-08-12T17:21:41.259Z,31.69
2022-08-12T17:24:21.521Z,31.99
2022-08-12T17:26:56.319Z,31.55
2022-08-12T17:29:24.125Z,31.46
2022-08-12T17:32:11.152Z,32.02
2022-08-12T17:34:56.972Z,31.57
2022-08-12T17:37:23.919Z,31.51
2022-08-12T17:40:12.500Z,31.72
2022-08-12T17:42:47.510Z,31.68
2022-08-12T17:45:19.941Z,32.36
2022-08-12T17:48:01.113Z,32.23
2022-08-12T17:50:32.281Z,32.29
2022-08-12T17:53:02.849Z,32.10
2022-08-12T17:55:43.200Z,31.84
2022-08-12T17:58:18.707Z,31.87
2022-08-12T18:00:50.631Z,32.11
2022-08-12T18:04:05.355Z,32.11
2022-08-12T18:06:08.529Z,32.76
2022-08-12T18:08:43.285Z,32.80
2022-08-12T18:12:05.527Z,32.12
2022-08-12T18:14:28.739Z,33.25
2022-08-12T18:17:00.808Z,33.54
2022-08-12T18:19:34.097Z,32.29
2022-08-12T18:22:22.170Z,32.09
2022-08-12T18:25:04.911Z,32.73
2022-08-12T18:27:44.210Z,32.30
2022-08-12T18:30:16.548Z,32.80
2022-08-12T18:33:04.017Z,32.94
2022-08-12T18:35:47.453Z,33.71
2022-08-12T18:38:22.701Z,33.83
2022-08-12T18:41:20.909Z,33.17
2022-08-12T18:43:58.571Z,33.20
2022-08-12T18:46:32.121Z,32.89
2022-08-12T18:49:16.757Z,33.30
2022-08-12T18:51:55.073Z,33.72
2022-08-12T18:54:31.255Z,34.73
2022-08-12T18:57:01.051Z,34.31
2022-08-12T19:00:02.193Z,33.23
2022-08-12T19:02:21.540Z,33.96
2022-08-12T19:04:53.532Z,34.12
2022-08-12T19:07:24.880Z,33.91
2022-08-12T19:09:59.980Z,34.06
2022-08-12T19:12:57.117Z,34.95
2022-08-12T19:15:29.882Z,34.31
2022-08-12T19:18:02.629Z,34.61
2022-08-12T19:20:31.639Z,34.63
2022-08-12T19:23:02.263Z,34.44
2022-08-12T19:26:00.188Z,34.31
2022-08-12T19:28:30.381Z,34.62
2022-08-12T19:31:55.628Z,34.26
2022-08-12T19:37:27.002Z,34.95
2022-08-12T19:40:09.549Z,35.02
2022-08-12T19:42:53.597Z,35.31
2022-08-12T19:45:24.392Z,35.30
2022-08-12T19:48:17.457Z,35.03
2022-08-12T19:50:50.522Z,35.68
2022-08-12T19:53:22.799Z,35.20
2022-08-12T19:55:55.207Z,35.08
2022-08-12T19:58:23.892Z,34.53
2022-08-12T20:00:54.412Z,34.88
2022-08-12T20:03:40.281Z,35.60
2022-08-12T20:06:14.188Z,35.68
2022-08-12T20:08:48.868Z,35.68
2022-08-12T20:12:13.026Z,36.10
2022-08-12T20:14:09.802Z,36.05
2022-08-12T20:19:52.945Z,36.52
2022-08-12T20:22:24.423Z,36.02
2022-08-12T20:25:07.319Z,36.00
2022-08-12T20:28:04.007Z,35.21
2022-08-12T20:30:37.705Z,36.65
2022-08-12T20:33:19.116Z,37.37
2022-08-12T20:36:13.916Z,37.02
2022-08-12T20:38:39.564Z,36.65
2022-08-12T20:41:16.307Z,37.36
2022-08-12T20:43:49.378Z,37.46
2022-08-12T20:46:17.950Z,37.63
2022-08-12T20:48:46.984Z,37.23
2022-08-12T20:51:22.450Z,36.91
2022-08-12T20:53:58.282Z,36.56
2022-08-12T20:56:33.404Z,36.42
2022-08-12T20:59:02.295Z,36.87
2022-08-12T21:01:45.893Z,37.02
2022-08-12T21:04:33.357Z,36.78
2022-08-12T21:07:08.936Z,36.88
2022-08-12T21:09:41.525Z,36.90
2022-08-12T21:12:27.584Z,37.49
2022-08-12T21:15:23.677Z,38.56
2022-08-12T21:18:10.621Z,37.79
2022-08-12T21:20:50.837Z,37.75
2022-08-12T21:23:21.522Z,38.26
2022-08-12T21:25:51.102Z,38.52
2022-08-12T21:28:20.620Z,39.92
2022-08-12T21:31:11.262Z,38.71
2022-08-12T21:33:58.378Z,38.33
2022-08-12T21:36:34.479Z,39.17
2022-08-12T21:39:18.711Z,39.13
2022-08-12T21:41:52.934Z,38.36
2022-08-12T21:45:43.965Z,38.02
2022-08-12T21:47:21.196Z,38.19
2022-08-12T21:50:03.427Z,38.68
2022-08-12T21:52:36.208Z,38.90
2022-08-12T21:55:19.372Z,39.30
2022-08-12T21:57:53.772Z,39.68
2022-08-12T22:00:32.863Z,39.37
2022-08-12T22:04:04.262Z,39.09
2022-08-12T22:06:31.181Z,40.18
2022-08-12T22:09:15.976Z,39.68
2022-08-12T22:11:56.721Z,39.50
2022-08-12T22:14:28.741Z,39.44
2022-08-12T22:16:57.222Z,39.54
2022-08-12T22:19:24.440Z,39.67
2022-08-12T22:21:54.796Z,39.08
2022-08-12T22:24:26.432Z,39.42
2022-08-12T22:26:59.650Z,39.25
2022-08-12T22:30:01.064Z,39.42
2022-08-12T22:32:30.097Z,40.17
2022-08-12T22:35:23.141Z,40.25
2022-08-12T22:37:53.572Z,40.55
2022-08-12T22:40:22.725Z,39.86
2022-08-12T22:43:14.563Z,39.95
2022-08-12T22:46:01.576Z,39.99
2022-08-12T22:48:28.602Z,39.93
2022-08-12T22:50:59.355Z,39.26
2022-08-12T22:53:35.803Z,39.20
2022-08-12T22:56:08.182Z,39.18
2022-08-12T22:58:36.892Z,39.49
2022-08-12T23:01:11.095Z,38.97
2022-08-12T23:03:48.116Z,39.38
2022-08-12T23:06:23.847Z,39.88
2022-08-12T23:08:52.317Z,38.89
2022-08-12T23:11:23.800Z,39.07
2022-08-12T23:13:56.972Z,39.33
2022-08-12T23:16:31.695Z,39.10
2022-08-12T23:19:22.948Z,39.10
2022-08-12T23:22:05.036Z,39.46
2022-08-12T23:24:56.073Z,39.34
2022-08-12T23:27:51.861Z,39.93
2022-08-12T23:30:32.243Z,39.73
2022-08-12T23:33:13.108Z,39.81
2022-08-12T23:35:45.643Z,39.98
2022-08-12T23:38:30.354Z,39.95
2022-08-12T23:41:01.273Z,39.93
2022-08-12T23:43:39.095Z,40.09
2022-08-12T23:46:10.857Z,39.89
2022-08-12T23:48:38.085Z,39.82
2022-08-12T23:51:22.318Z,39.66
2022-08-12T23:53:56.223Z,39.99
2022-08-12T23:56:26.471Z,39.77
2022-08-12T23:58:55.205Z,39.55
